Time;durP1;ratioP1;P1;durP2;ratioP2;P2;SDS_P1;SDS_P2;PMS_P1;PMS_P2;Temp;Humidity;BMP_temperature;BMP_pressure;BME280_temperature;BME280_humidity;BME280_pressure;Samples;Min_cycle;Max_cycle;Signal;HPM_P1;HPM_P2
2023/06/26 00:00:12;;;;;;;8.02;6.63;;;19.60;61.50;;;;;;5031384;28;20500;-63
2023/06/26 00:02:38;;;;;;;7.78;6.97;;;19.60;62.90;;;;;;5028950;28;20312;-64
2023/06/26 00:05:04;;;;;;;7.00;6.25;;;19.60;62.00;;;;;;5026387;28;20463;-62
2023/06/26 00:07:30;;;;;;;7.22;6.28;;;19.50;62.20;;;;;;5029234;28;20029;-62
2023/06/26 00:09:59;;;;;;;7.65;6.80;;;19.50;62.30;;;;;;5030205;28;20036;-63
2023/06/26 00:12:25;;;;;;;8.13;6.95;;;19.50;62.70;;;;;;5026927;28;20033;-63
2023/06/26 00:14:51;;;;;;;7.22;6.47;;;19.40;62.50;;;;;;5029172;28;20429;-63
2023/06/26 00:17:16;;;;;;;7.03;6.32;;;19.40;62.60;;;;;;5032629;28;20528;-64
2023/06/26 00:19:42;;;;;;;7.20;6.45;;;19.40;62.60;;;;;;5031982;28;20401;-64
2023/06/26 00:22:07;;;;;;;7.00;6.30;;;19.30;62.50;;;;;;5029302;28;20045;-63
2023/06/26 00:24:33;;;;;;;7.07;6.38;;;19.20;62.60;;;;;;5031567;28;20037;-63
2023/06/26 00:26:58;;;;;;;7.80;6.35;;;19.10;62.40;;;;;;5033860;28;20092;-63
2023/06/26 00:29:24;;;;;;;7.13;5.80;;;19.10;62.50;;;;;;5034767;28;20029;-64
2023/06/26 00:31:49;;;;;;;7.93;6.22;;;19.00;62.70;;;;;;5026852;28;20445;-63
2023/06/26 00:34:15;;;;;;;7.22;6.45;;;19.00;63.10;;;;;;5026268;28;20033;-63
2023/06/26 00:36:43;;;;;;;7.25;6.55;;;18.90;63.40;;;;;;5027311;28;20036;-62
2023/06/26 00:39:09;;;;;;;7.38;6.57;;;18.90;63.60;;;;;;5026552;28;20038;-64
2023/06/26 00:41:37;;;;;;;7.18;6.45;;;18.80;63.80;;;;;;5024870;28;20029;-63
2023/06/26 00:44:03;;;;;;;8.00;6.25;;;18.80;64.10;;;;;;5028950;28;20029;-63
2023/06/26 00:46:29;;;;;;;7.95;7.07;;;18.80;64.30;;;;;;5027131;28;20137;-63
2023/06/26 00:48:57;;;;;;;9.00;7.00;;;18.80;64.50;;;;;;5026489;28;20112;-63
2023/06/26 00:51:22;;;;;;;8.20;7.07;;;18.80;64.70;;;;;;5027055;28;20037;-63
2023/06/26 00:53:49;;;;;;;7.43;6.65;;;18.80;64.80;;;;;;5029965;28;20044;-63
2023/06/26 00:56:17;;;;;;;10.35;6.50;;;18.70;64.80;;;;;;5024887;28;20612;-63
2023/06/26 00:58:42;;;;;;;7.90;6.78;;;18.70;64.90;;;;;;5027261;28;20041;-63
2023/06/26 01:01:08;;;;;;;6.93;6.22;;;18.70;64.80;;;;;;5023980;28;20405;-63
2023/06/26 01:03:34;;;;;;;9.40;6.53;;;18.60;64.70;;;;;;5025104;28;20033;-63
2023/06/26 01:06:01;;;;;;;7.45;6.75;;;18.60;65.00;;;;;;5024781;28;20095;-63
2023/06/26 01:08:27;;;;;;;7.05;6.35;;;18.60;65.20;;;;;;5027261;28;20045;-63
2023/06/26 01:10:53;;;;;;;6.88;6.18;;;18.60;65.20;;;;;;5022688;28;20053;-63
2023/06/26 01:13:19;;;;;;;7.95;6.40;;;18.60;65.00;;;;;;5026041;28;20128;-63
2023/06/26 01:15:46;;;;;;;8.02;7.00;;;18.50;65.00;;;;;;5029842;28;20124;-62
2023/06/26 01:18:15;;;;;;;7.57;6.60;;;18.50;65.10;;;;;;5027720;28;20048;-63
2023/06/26 01:20:42;;;;;;;7.78;6.72;;;18.50;65.30;;;;;;5029541;28;20120;-62
2023/06/26 01:23:24;;;;;;;7.65;6.57;;;18.50;65.30;;;;;;5035923;28;20528;-63
2023/06/26 01:26:08;;;;;;;9.52;6.82;;;18.50;66.00;;;;;;5036368;28;20063;-63
2023/06/26 01:28:35;;;;;;;7.68;6.47;;;18.50;66.60;;;;;;5035082;28;20417;-63
2023/06/26 01:31:02;;;;;;;8.13;6.47;;;18.40;66.20;;;;;;5035316;28;20076;-63
2023/06/26 01:33:28;;;;;;;8.57;7.03;;;18.50;65.50;;;;;;5028094;28;20041;-62
2023/06/26 01:35:54;;;;;;;7.97;6.55;;;18.40;65.70;;;;;;5023392;28;20045;-63
2023/06/26 01:38:22;;;;;;;7.60;6.80;;;18.40;65.90;;;;;;5031521;28;20048;-63
2023/06/26 01:40:48;;;;;;;8.43;6.88;;;18.40;66.10;;;;;;5025371;28;20033;-63
2023/06/26 01:43:17;;;;;;;7.93;6.50;;;18.40;66.20;;;;;;5029037;28;20034;-63
2023/06/26 01:45:45;;;;;;;9.10;6.78;;;18.40;66.60;;;;;;5025428;28;21750;-63
2023/06/26 01:48:15;;;;;;;7.75;6.80;;;18.40;66.50;;;;;;5027093;28;20537;-63
2023/06/26 01:50:41;;;;;;;8.10;6.45;;;18.30;66.40;;;;;;5024159;28;20130;-63
2023/06/26 01:53:11;;;;;;;8.77;7.47;;;18.30;66.40;;;;;;5028007;28;20044;-63
2023/06/26 01:55:48;;;;;;;9.43;6.88;;;18.30;67.00;;;;;;5025024;28;20030;-63
2023/06/26 01:58:16;;;;;;;7.35;6.65;;;18.20;67.10;;;;;;5024320;28;20041;-63
2023/06/26 02:00:42;;;;;;;8.38;7.20;;;18.20;66.60;;;;;;5023526;28;20033;-63
2023/06/26 02:03:08;;;;;;;11.02;7.60;;;18.20;66.80;;;;;;5025741;28;20036;-63
2023/06/26 02:05:34;;;;;;;7.65;6.60;;;18.20;66.90;;;;;;5025893;28;20033;-63
2023/06/26 02:08:01;;;;;;;9.45;7.68;;;18.20;66.80;;;;;;5025630;28;20045;-63
2023/06/26 02:10:26;;;;;;;8.35;7.35;;;18.10;67.00;;;;;;5025493;28;20421;-62
2023/06/26 02:12:52;;;;;;;8.35;7.07;;;18.10;67.10;;;;;;5023458;28;20057;-63
2023/06/26 02:15:17;;;;;;;7.30;6.50;;;18.00;67.10;;;;;;5026897;28;20486;-62
2023/06/26 02:17:48;;;;;;;8.88;6.82;;;18.00;67.10;;;;;;5025930;28;20052;-63
2023/06/26 02:20:15;;;;;;;10.70;7.57;;;18.00;67.20;;;;;;5028611;28;20299;-63
2023/06/26 02:22:41;;;;;;;8.30;7.18;;;18.00;67.10;;;;;;5022201;28;20042;-63
2023/06/26 02:25:06;;;;;;;8.35;7.00;;;18.00;67.10;;;;;;5028932;28;20035;-62
2023/06/26 02:27:32;;;;;;;8.07;6.55;;;18.00;67.30;;;;;;5029375;28;20032;-63
2023/06/26 02:29:58;;;;;;;7.78;6.97;;;18.00;67.40;;;;;;5033131;28;20025;-63
2023/06/26 02:32:23;;;;;;;7.68;6.85;;;18.00;67.60;;;;;;5027204;28;20060;-63
2023/06/26 02:34:51;;;;;;;8.85;7.35;;;18.00;67.40;;;;;;5027399;28;20090;-63
2023/06/26 02:37:17;;;;;;;7.70;6.90;;;18.00;68.40;;;;;;5028797;28;20033;-63
2023/06/26 02:39:43;;;;;;;8.60;7.50;;;18.00;67.60;;;;;;5032607;28;20108;-64
2023/06/26 02:42:08;;;;;;;9.13;7.35;;;17.90;67.80;;;;;;5027954;28;20396;-63
2023/06/26 02:44:34;;;;;;;8.15;6.97;;;17.90;67.90;;;;;;5025892;28;20041;-64
2023/06/26 02:46:59;;;;;;;9.00;7.43;;;17.90;67.80;;;;;;5028856;28;20041;-63
2023/06/26 02:49:25;;;;;;;9.32;7.30;;;17.90;68.00;;;;;;5028717;28;20044;-63
2023/06/26 02:51:50;;;;;;;8.60;7.28;;;17.80;68.00;;;;;;5029007;28;20034;-63
2023/06/26 02:54:16;;;;;;;8.38;7.20;;;17.80;68.00;;;;;;5036008;28;20037;-63
2023/06/26 02:56:42;;;;;;;9.35;7.63;;;17.80;68.30;;;;;;5029840;28;20033;-63
2023/06/26 02:59:08;;;;;;;8.18;7.05;;;17.80;68.50;;;;;;5030656;28;20313;-63
2023/06/26 03:01:33;;;;;;;8.85;7.55;;;17.80;68.60;;;;;;5031731;28;20136;-64
2023/06/26 03:04:00;;;;;;;9.50;7.32;;;17.70;68.70;;;;;;5034143;28;20046;-63
2023/06/26 03:06:27;;;;;;;10.43;7.63;;;17.70;68.80;;;;;;5029278;28;20270;-63
2023/06/26 03:08:53;;;;;;;8.32;7.18;;;17.70;69.00;;;;;;5028926;28;20067;-63
2023/06/26 03:11:19;;;;;;;8.77;7.45;;;17.60;68.80;;;;;;5033157;28;20029;-63
2023/06/26 03:13:44;;;;;;;10.57;8.05;;;17.70;68.90;;;;;;5028764;28;20056;-63
2023/06/26 03:16:10;;;;;;;10.82;7.38;;;17.70;69.10;;;;;;5031844;28;20496;-63
2023/06/26 03:18:36;;;;;;;7.78;6.95;;;17.60;69.00;;;;;;5031335;28;20273;-63
2023/06/26 03:21:01;;;;;;;9.00;7.40;;;17.60;68.80;;;;;;5030519;28;20038;-63
2023/06/26 03:23:27;;;;;;;10.52;7.60;;;17.60;69.10;;;;;;5027720;28;20033;-63
2023/06/26 03:25:53;;;;;;;9.30;7.90;;;17.60;69.20;;;;;;5029578;28;20136;-63
2023/06/26 03:28:18;;;;;;;8.85;7.00;;;17.60;69.00;;;;;;5029252;28;20064;-64
2023/06/26 03:30:44;;;;;;;12.10;7.78;;;17.60;69.00;;;;;;5026427;28;20502;-63
2023/06/26 03:33:10;;;;;;;11.77;7.63;;;17.60;69.10;;;;;;5027131;28;20033;-63
2023/06/26 03:35:35;;;;;;;9.38;7.60;;;17.60;69.30;;;;;;5024435;28;20038;-64
2023/06/26 03:38:01;;;;;;;11.45;7.65;;;17.60;69.50;;;;;;5027707;28;20463;-63
2023/06/26 03:40:27;;;;;;;8.40;6.78;;;17.60;69.30;;;;;;5025833;28;20045;-64
2023/06/26 03:42:53;;;;;;;10.75;7.82;;;17.60;69.30;;;;;;5031288;28;20268;-63
2023/06/26 03:45:19;;;;;;;8.88;7.47;;;17.60;69.50;;;;;;5025773;28;20580;-64
2023/06/26 03:47:48;;;;;;;9.15;7.90;;;17.60;69.50;;;;;;5029293;28;20472;-63
2023/06/26 03:50:16;;;;;;;8.77;7.68;;;17.60;69.60;;;;;;5028659;28;20067;-63
2023/06/26 03:52:42;;;;;;;9.43;7.75;;;17.60;69.60;;;;;;5032861;28;20365;-63
2023/06/26 03:55:08;;;;;;;11.52;8.30;;;17.60;69.50;;;;;;5026458;28;20033;-63
2023/06/26 03:57:34;;;;;;;10.57;8.32;;;17.60;69.70;;;;;;5029308;28;20470;-63
2023/06/26 03:59:59;;;;;;;9.27;7.90;;;17.60;70.00;;;;;;5027299;28;20568;-63
2023/06/26 04:02:25;;;;;;;9.20;7.53;;;17.60;69.90;;;;;;5028714;28;20719;-63
2023/06/26 04:04:52;;;;;;;9.38;7.82;;;17.60;69.80;;;;;;5029956;28;20033;-63
2023/06/26 04:07:18;;;;;;;12.70;8.48;;;17.50;69.90;;;;;;5030204;28;20536;-63
2023/06/26 04:09:45;;;;;;;9.93;8.00;;;17.50;70.20;;;;;;5016580;28;20244;-63
2023/06/26 04:12:10;;;;;;;10.00;8.25;;;17.50;70.20;;;;;;5023925;28;20050;-63
2023/06/26 04:14:36;;;;;;;10.23;8.02;;;17.50;70.40;;;;;;5027250;28;20041;-63
2023/06/26 04:17:03;;;;;;;9.48;7.60;;;17.50;70.60;;;;;;5027283;28;20038;-63
2023/06/26 04:19:29;;;;;;;9.77;8.07;;;17.50;70.60;;;;;;5031113;28;20040;-63
2023/06/26 04:21:55;;;;;;;10.38;8.07;;;17.40;70.70;;;;;;5025769;28;20040;-63
2023/06/26 04:24:20;;;;;;;11.23;8.35;;;17.40;70.80;;;;;;5025895;28;20025;-62
2023/06/26 04:26:46;;;;;;;10.68;7.90;;;17.40;71.00;;;;;;5028839;28;20588;-63
2023/06/26 04:29:12;;;;;;;9.65;7.90;;;17.40;71.10;;;;;;5033640;28;20032;-63
2023/06/26 04:31:38;;;;;;;9.35;7.82;;;17.50;71.10;;;;;;5033235;28;20416;-63
2023/06/26 04:34:04;;;;;;;10.60;8.10;;;17.50;71.20;;;;;;5035200;28;20041;-62
2023/06/26 04:36:31;;;;;;;10.93;8.45;;;17.50;71.30;;;;;;5036532;28;20036;-63
2023/06/26 04:38:57;;;;;;;10.98;8.25;;;17.50;71.60;;;;;;5037405;28;20040;-63
2023/06/26 04:41:22;;;;;;;10.93;8.15;;;17.50;71.70;;;;;;5036756;28;20029;-63
2023/06/26 04:43:48;;;;;;;9.15;7.82;;;17.50;71.60;;;;;;5036246;28;20056;-63
2023/06/26 04:46:14;;;;;;;10.88;8.73;;;17.60;71.70;;;;;;5034748;28;20052;-63
2023/06/26 04:48:39;;;;;;;13.18;8.68;;;17.60;72.10;;;;;;5032449;28;20070;-63
2023/06/26 04:51:05;;;;;;;10.98;8.68;;;17.60;72.20;;;;;;5034691;28;20041;-63
2023/06/26 04:53:30;;;;;;;10.63;8.43;;;17.70;72.30;;;;;;5033285;28;20398;-63
2023/06/26 04:55:56;;;;;;;10.00;8.48;;;17.70;72.60;;;;;;5033998;28;20048;-63
2023/06/26 04:58:21;;;;;;;10.45;8.60;;;17.80;72.80;;;;;;5032324;28;20243;-63
2023/06/26 05:00:47;;;;;;;9.70;8.00;;;17.80;73.10;;;;;;5032561;28;20048;-63
2023/06/26 05:03:14;;;;;;;10.52;8.52;;;17.80;73.00;;;;;;5033021;28;20036;-63
2023/06/26 05:05:39;;;;;;;11.10;8.32;;;17.90;73.00;;;;;;5033945;28;20059;-63
2023/06/26 05:08:18;;;;;;;12.57;8.15;;;17.90;73.30;;;;;;5032964;28;20065;-63
2023/06/26 05:10:44;;;;;;;12.30;8.20;;;18.00;73.90;;;;;;5024260;28;20116;-62
2023/06/26 05:13:10;;;;;;;11.98;8.40;;;18.10;73.30;;;;;;5034029;28;20147;-63
2023/06/26 05:15:36;;;;;;;14.35;8.88;;;18.20;73.40;;;;;;5032065;28;20190;-63
2023/06/26 05:18:01;;;;;;;13.80;8.40;;;18.30;73.50;;;;;;5032335;28;20233;-62
2023/06/26 05:20:27;;;;;;;12.60;8.10;;;18.30;73.20;;;;;;5029921;28;20413;-63
2023/06/26 05:22:53;;;;;;;15.55;8.65;;;18.50;73.10;;;;;;5033581;28;20033;-63
2023/06/26 05:25:21;;;;;;;16.23;8.70;;;18.60;73.20;;;;;;5033135;28;20040;-63
2023/06/26 05:27:47;;;;;;;13.95;7.93;;;18.80;73.10;;;;;;5033095;28;20037;-63
2023/06/26 05:30:13;;;;;;;14.65;8.07;;;18.90;73.00;;;;;;5033074;28;20060;-63
2023/06/26 05:32:40;;;;;;;16.13;8.90;;;19.00;72.80;;;;;;5030915;28;20072;-63
2023/06/26 05:35:07;;;;;;;12.95;8.00;;;19.20;72.70;;;;;;5034423;28;20444;-63
2023/06/26 05:37:34;;;;;;;15.18;7.32;;;19.30;72.50;;;;;;5032469;28;20512;-63
2023/06/26 05:40:00;;;;;;;12.65;7.95;;;19.50;72.40;;;;;;5032787;28;20106;-63
2023/06/26 05:42:27;;;;;;;12.02;7.60;;;19.60;72.40;;;;;;5033627;28;20042;-64
2023/06/26 05:44:53;;;;;;;14.13;7.32;;;19.80;71.60;;;;;;5032569;28;21649;-63
2023/06/26 05:47:19;;;;;;;12.40;7.43;;;19.90;71.30;;;;;;5034012;28;20034;-63
2023/06/26 05:49:44;;;;;;;14.70;7.20;;;20.10;71.00;;;;;;5032171;28;20437;-63
2023/06/26 05:52:11;;;;;;;9.27;6.88;;;20.30;70.70;;;;;;5031850;28;20119;-63
2023/06/26 05:54:37;;;;;;;10.13;6.78;;;20.40;70.40;;;;;;5032018;28;20029;-63
2023/06/26 05:57:03;;;;;;;7.70;6.45;;;20.60;69.90;;;;;;5033342;28;20036;-63
2023/06/26 05:59:31;;;;;;;8.77;6.88;;;20.80;69.50;;;;;;5033283;28;20040;-63
2023/06/26 06:01:56;;;;;;;8.20;6.82;;;20.90;69.00;;;;;;5032098;28;20535;-63
2023/06/26 06:04:22;;;;;;;6.88;6.18;;;21.10;68.50;;;;;;5033082;28;20065;-63
2023/06/26 06:06:48;;;;;;;7.85;6.78;;;21.20;67.80;;;;;;5033170;28;20033;-63
2023/06/26 06:09:13;;;;;;;7.10;6.40;;;21.30;67.60;;;;;;5036650;28;20038;-63
2023/06/26 06:11:39;;;;;;;8.52;7.05;;;21.50;67.40;;;;;;5031472;28;20034;-63
2023/06/26 06:14:05;;;;;;;12.18;6.88;;;21.60;66.70;;;;;;5035547;28;20421;-63
2023/06/26 06:16:30;;;;;;;7.97;6.57;;;21.70;66.20;;;;;;5036316;28;20036;-63
2023/06/26 06:18:56;;;;;;;8.77;6.50;;;21.80;65.80;;;;;;5033270;28;20298;-61
2023/06/26 06:21:21;;;;;;;7.25;6.55;;;22.00;65.70;;;;;;5036898;28;20761;-63
2023/06/26 06:23:47;;;;;;;8.88;6.88;;;22.10;65.20;;;;;;5033967;28;20083;-63
2023/06/26 06:26:12;;;;;;;7.38;6.05;;;22.20;65.00;;;;;;5036199;28;20034;-63
2023/06/26 06:28:39;;;;;;;8.38;6.70;;;22.40;64.80;;;;;;5034624;28;20102;-63
2023/06/26 06:31:04;;;;;;;8.75;6.45;;;22.40;64.30;;;;;;5033999;28;20382;-63
2023/06/26 06:33:30;;;;;;;9.35;6.60;;;22.50;64.30;;;;;;5036034;28;20099;-63
2023/06/26 06:35:56;;;;;;;7.30;6.40;;;22.70;64.30;;;;;;5036558;28;20033;-63
2023/06/26 06:38:21;;;;;;;8.10;6.55;;;22.80;64.00;;;;;;5035609;28;20488;-63
2023/06/26 06:40:47;;;;;;;7.50;5.82;;;22.90;63.90;;;;;;5034660;28;20033;-63
2023/06/26 06:43:13;;;;;;;7.78;6.25;;;23.00;64.00;;;;;;5036693;28;20619;-61
2023/06/26 06:45:38;;;;;;;10.23;6.28;;;23.10;63.80;;;;;;5034638;28;20052;-63
2023/06/26 06:48:04;;;;;;;6.95;5.65;;;23.20;63.40;;;;;;5037910;28;20029;-63
2023/06/26 06:50:30;;;;;;;6.50;5.90;;;23.40;62.90;;;;;;5035170;28;20116;-63
2023/06/26 06:52:56;;;;;;;6.90;5.80;;;23.50;61.70;;;;;;5036852;28;20595;-63
2023/06/26 06:55:22;;;;;;;8.10;5.53;;;23.60;61.00;;;;;;5034096;28;20034;-63
2023/06/26 06:57:48;;;;;;;6.22;5.63;;;23.70;60.50;;;;;;5035294;28;20508;-63
2023/06/26 07:00:14;;;;;;;8.80;5.18;;;23.80;60.30;;;;;;5036189;28;20041;-63
2023/06/26 07:02:42;;;;;;;9.43;5.30;;;23.90;60.30;;;;;;5032435;28;20152;-63
2023/06/26 07:05:09;;;;;;;6.55;5.90;;;24.10;60.10;;;;;;5036048;28;20417;-63
2023/06/26 07:07:35;;;;;;;9.98;6.00;;;24.20;60.60;;;;;;5035855;28;20501;-63
2023/06/26 07:10:09;;;;;;;6.40;5.45;;;24.30;60.50;;;;;;5035993;28;20064;-64
2023/06/26 07:12:35;;;;;;;8.40;5.82;;;24.40;60.20;;;;;;5032096;28;20044;-63
2023/06/26 07:15:02;;;;;;;7.22;5.80;;;24.50;59.80;;;;;;5034752;28;20061;-63
2023/06/26 07:17:28;;;;;;;7.75;5.60;;;24.70;59.60;;;;;;5034985;28;20394;-63
2023/06/26 07:19:53;;;;;;;6.80;5.60;;;24.70;59.30;;;;;;5033547;28;20044;-63
2023/06/26 07:22:20;;;;;;;6.45;5.72;;;24.80;59.20;;;;;;5035709;28;20041;-63
2023/06/26 07:24:47;;;;;;;6.75;5.50;;;24.90;58.80;;;;;;5033798;28;20064;-63
2023/06/26 07:27:18;;;;;;;9.45;5.85;;;25.00;58.80;;;;;;5036133;28;20528;-63
2023/06/26 07:29:43;;;;;;;10.40;5.53;;;25.10;58.50;;;;;;5035982;28;20091;-63
2023/06/26 07:32:09;;;;;;;8.27;6.03;;;25.20;58.50;;;;;;5034963;28;20037;-63
2023/06/26 07:34:34;;;;;;;7.97;5.45;;;25.30;58.50;;;;;;5032843;28;20025;-63
2023/06/26 07:37:00;;;;;;;7.18;5.40;;;25.50;58.40;;;;;;5034445;28;20500;-63
2023/06/26 07:39:26;;;;;;;6.07;5.47;;;25.50;57.80;;;;;;5034744;28;20053;-64
2023/06/26 07:41:52;;;;;;;6.00;5.40;;;25.70;57.70;;;;;;5036050;28;20052;-63
2023/06/26 07:44:18;;;;;;;8.20;5.13;;;25.80;57.80;;;;;;5035692;28;20596;-63
2023/06/26 07:46:44;;;;;;;5.28;4.78;;;25.90;57.10;;;;;;5032638;28;20125;-63
2023/06/26 07:49:11;;;;;;;5.13;4.70;;;26.10;56.50;;;;;;5034634;28;20064;-63
2023/06/26 07:51:37;;;;;;;5.68;4.85;;;26.20;56.20;;;;;;5034763;28;20488;-64
2023/06/26 07:54:02;;;;;;;5.25;4.85;;;26.30;55.70;;;;;;5033782;28;20056;-63
2023/06/26 07:56:28;;;;;;;5.13;4.63;;;26.40;55.30;;;;;;5033869;28;20044;-63
2023/06/26 07:58:53;;;;;;;5.55;5.05;;;26.50;55.20;;;;;;5033879;28;20409;-63
2023/06/26 08:01:19;;;;;;;5.38;4.88;;;26.60;55.00;;;;;;5029651;28;20369;-63
2023/06/26 08:03:45;;;;;;;6.20;5.07;;;26.70;54.80;;;;;;5031465;28;20038;-63
2023/06/26 08:06:10;;;;;;;8.13;4.63;;;26.80;54.60;;;;;;5036163;28;20377;-63
2023/06/26 08:08:36;;;;;;;6.13;4.65;;;26.90;53.80;;;;;;5032553;28;20037;-63
2023/06/26 08:11:01;;;;;;;6.15;4.65;;;27.10;53.60;;;;;;5033053;28;20029;-63
2023/06/26 08:13:27;;;;;;;6.20;4.97;;;27.20;53.50;;;;;;5035108;28;20415;-63
2023/06/26 08:15:53;;;;;;;5.20;4.70;;;27.30;52.90;;;;;;5034811;28;20041;-63
2023/06/26 08:18:19;;;;;;;6.05;4.40;;;27.40;52.60;;;;;;5033679;28;20041;-63
2023/06/26 08:20:44;;;;;;;7.63;4.43;;;27.50;52.60;;;;;;5034450;28;20038;-63
2023/06/26 08:23:10;;;;;;;5.55;4.55;;;27.60;52.30;;;;;;5034396;28;20448;-63
2023/06/26 08:25:35;;;;;;;14.48;4.55;;;27.70;52.00;;;;;;5037011;28;20041;-63
2023/06/26 08:28:01;;;;;;;4.80;4.40;;;27.80;51.40;;;;;;5037266;28;20120;-63
2023/06/26 08:30:28;;;;;;;5.55;4.18;;;27.90;51.20;;;;;;5036509;28;20126;-63
2023/06/26 08:32:57;;;;;;;5.93;4.20;;;28.00;51.00;;;;;;5036929;28;20530;-63
2023/06/26 08:35:23;;;;;;;4.80;4.30;;;28.10;50.80;;;;;;5037668;28;20033;-63
2023/06/26 08:37:49;;;;;;;4.38;4.00;;;28.20;50.30;;;;;;5036717;28;20048;-63
2023/06/26 08:40:21;;;;;;;4.68;4.28;;;28.40;50.00;;;;;;5037319;28;20063;-63
2023/06/26 08:42:46;;;;;;;4.38;3.97;;;28.50;49.70;;;;;;5036283;28;20049;-63
2023/06/26 08:45:12;;;;;;;4.78;4.35;;;28.60;49.60;;;;;;5037275;28;20239;-63
2023/06/26 08:47:39;;;;;;;4.53;4.03;;;28.60;49.20;;;;;;5031852;28;20037;-63
2023/06/26 08:50:10;;;;;;;6.10;4.15;;;28.80;49.10;;;;;;5033475;28;20091;-63
2023/06/26 08:52:45;;;;;;;4.75;4.28;;;28.90;49.00;;;;;;5033464;28;20380;-63
2023/06/26 08:55:15;;;;;;;4.93;3.97;;;29.00;48.30;;;;;;5034612;28;20030;-63
2023/06/26 08:57:40;;;;;;;10.52;4.32;;;29.10;48.90;;;;;;5034371;28;20038;-63
2023/06/26 09:00:08;;;;;;;4.18;3.85;;;29.20;48.80;;;;;;5034831;28;20045;-63
2023/06/26 09:02:38;;;;;;;5.97;4.00;;;29.30;48.50;;;;;;5030830;28;20500;-64
2023/06/26 09:05:03;;;;;;;4.97;4.47;;;29.50;47.90;;;;;;5035484;28;20045;-63
2023/06/26 09:07:29;;;;;;;4.25;3.85;;;29.60;47.60;;;;;;5034899;28;20048;-63
2023/06/26 09:09:55;;;;;;;5.05;3.75;;;29.70;47.40;;;;;;5033285;28;20091;-63
2023/06/26 09:12:21;;;;;;;3.88;3.58;;;29.80;47.70;;;;;;5030667;28;20029;-64
2023/06/26 09:14:47;;;;;;;4.07;3.55;;;29.90;46.60;;;;;;5034284;28;20442;-63
2023/06/26 09:17:16;;;;;;;3.72;3.50;;;30.00;46.40;;;;;;5032815;28;20411;-63
2023/06/26 09:19:45;;;;;;;5.15;3.70;;;30.10;46.20;;;;;;5032813;28;20524;-63
2023/06/26 09:22:13;;;;;;;4.75;3.70;;;30.20;46.10;;;;;;5034344;28;20299;-63
2023/06/26 09:24:40;;;;;;;3.95;3.45;;;30.30;46.20;;;;;;5034243;28;20041;-63
2023/06/26 09:27:06;;;;;;;7.50;3.60;;;30.40;45.70;;;;;;5032626;28;20510;-63
2023/06/26 09:29:33;;;;;;;4.05;3.70;;;30.40;45.30;;;;;;5033178;28;20116;-63
2023/06/26 09:31:59;;;;;;;4.10;3.80;;;30.50;44.50;;;;;;5031564;28;20025;-63
2023/06/26 09:34:32;;;;;;;3.67;3.22;;;30.60;44.80;;;;;;5034645;28;20468;-63
2023/06/26 09:36:59;;;;;;;3.95;3.65;;;30.70;43.90;;;;;;5033138;28;20038;-64
2023/06/26 09:39:24;;;;;;;3.67;3.38;;;30.80;43.60;;;;;;5032784;28;20081;-63
2023/06/26 09:41:50;;;;;;;4.20;3.90;;;30.90;43.30;;;;;;5034407;28;20037;-63
2023/06/26 09:44:15;;;;;;;3.95;3.45;;;30.90;42.80;;;;;;5033214;28;20041;-63
2023/06/26 09:46:44;;;;;;;4.05;3.65;;;30.90;43.00;;;;;;5032387;28;20033;-64
2023/06/26 09:49:11;;;;;;;4.00;3.70;;;31.00;42.90;;;;;;5033726;28;20428;-63
2023/06/26 09:51:38;;;;;;;4.10;3.50;;;31.00;42.70;;;;;;5034260;28;20033;-64
2023/06/26 09:54:05;;;;;;;4.20;3.90;;;31.10;42.00;;;;;;5032403;28;20524;-64
2023/06/26 09:56:32;;;;;;;4.53;3.70;;;31.20;42.30;;;;;;5032569;28;20029;-63
2023/06/26 09:59:02;;;;;;;3.50;3.30;;;31.30;42.50;;;;;;5034446;28;20505;-63
2023/06/26 10:01:28;;;;;;;3.90;3.60;;;31.30;42.40;;;;;;5032494;28;20120;-63
2023/06/26 10:03:57;;;;;;;4.03;3.60;;;31.40;41.80;;;;;;5034953;28;20306;-64
2023/06/26 10:06:38;;;;;;;3.88;3.58;;;31.50;41.80;;;;;;5034308;28;20037;-64
2023/06/26 10:09:04;;;;;;;5.38;3.50;;;31.60;42.00;;;;;;5034612;28;20079;-63
2023/06/26 10:11:51;;;;;;;3.72;3.42;;;31.60;42.40;;;;;;5031784;28;20037;-63
2023/06/26 10:14:17;;;;;;;3.83;3.53;;;31.70;41.00;;;;;;5034522;28;20045;-64
2023/06/26 10:16:44;;;;;;;8.05;3.78;;;31.80;42.00;;;;;;5031609;28;20041;-64
2023/06/26 10:19:13;;;;;;;4.15;3.85;;;31.90;41.60;;;;;;5032532;28;20064;-64
2023/06/26 10:21:39;;;;;;;3.80;3.50;;;32.00;41.40;;;;;;5032852;28;20033;-63
2023/06/26 10:24:09;;;;;;;5.85;3.58;;;32.00;40.80;;;;;;5031498;28;20037;-64
2023/06/26 10:26:45;;;;;;;4.30;3.90;;;32.10;40.90;;;;;;5034329;28;20513;-64
2023/06/26 10:29:11;;;;;;;4.20;3.90;;;32.20;40.00;;;;;;5034228;28;20041;-64
2023/06/26 10:31:39;;;;;;;4.75;4.25;;;32.20;40.90;;;;;;5031790;28;20037;-64
2023/06/26 10:34:06;;;;;;;4.35;4.00;;;32.30;40.00;;;;;;5032533;28;20041;-65
2023/06/26 10:36:31;;;;;;;4.22;3.83;;;32.30;39.50;;;;;;5033995;28;20029;-63
2023/06/26 10:39:05;;;;;;;5.25;3.95;;;32.30;39.00;;;;;;5033800;28;20037;-63
2023/06/26 10:41:37;;;;;;;4.10;3.80;;;32.20;39.00;;;;;;5033120;28;20408;-63
2023/06/26 10:44:10;;;;;;;4.60;4.20;;;32.20;39.80;;;;;;5034567;28;20037;-64
2023/06/26 10:46:52;;;;;;;4.95;3.80;;;32.10;39.70;;;;;;5032943;28;20040;-63
2023/06/26 10:49:20;;;;;;;4.25;3.95;;;32.20;39.60;;;;;;5032251;28;20048;-65
2023/06/26 10:51:50;;;;;;;6.72;3.78;;;32.20;40.30;;;;;;5037131;28;20033;-63
2023/06/26 10:54:17;;;;;;;4.57;3.78;;;32.30;39.70;;;;;;5036931;28;20528;-63
2023/06/26 10:56:50;;;;;;;4.25;3.95;;;32.40;40.60;;;;;;5038703;28;20048;-64
2023/06/26 10:59:18;;;;;;;4.60;4.20;;;32.50;39.00;;;;;;5036329;28;20040;-64
2023/06/26 11:01:46;;;;;;;4.15;3.75;;;32.50;39.20;;;;;;5036587;28;20033;-64
2023/06/26 11:04:17;;;;;;;4.38;4.00;;;32.50;39.40;;;;;;5036268;28;20111;-64
2023/06/26 11:06:46;;;;;;;4.05;3.65;;;32.50;39.50;;;;;;5034710;28;20040;-63
2023/06/26 11:09:14;;;;;;;4.50;4.10;;;32.50;39.30;;;;;;5035582;28;20026;-64
2023/06/26 11:11:58;;;;;;;4.88;4.35;;;32.50;38.90;;;;;;5031480;28;20037;-64
2023/06/26 11:14:26;;;;;;;7.03;4.90;;;32.60;38.20;;;;;;5036217;28;20059;-64
2023/06/26 11:16:52;;;;;;;4.75;4.32;;;32.60;38.70;;;;;;5037341;28;20512;-64
2023/06/26 11:19:18;;;;;;;4.82;4.43;;;32.50;38.70;;;;;;5036172;28;20134;-64
2023/06/26 11:21:44;;;;;;;3.92;3.63;;;32.40;38.90;;;;;;5034936;28;20052;-63
2023/06/26 11:24:12;;;;;;;4.50;4.10;;;32.30;39.50;;;;;;5035763;28;20084;-64
2023/06/26 11:26:42;;;;;;;6.57;4.18;;;32.30;39.60;;;;;;5035710;28;20653;-64
2023/06/26 11:29:08;;;;;;;4.63;4.22;;;32.20;38.20;;;;;;5037254;28;20045;-63
2023/06/26 11:31:37;;;;;;;4.82;4.32;;;32.20;38.40;;;;;;5033026;28;20037;-64
2023/06/26 11:34:05;;;;;;;4.60;4.20;;;32.20;38.40;;;;;;5036775;28;20053;-64
2023/06/26 11:36:31;;;;;;;4.60;4.30;;;32.20;37.80;;;;;;5037346;28;20750;-63
2023/06/26 11:39:02;;;;;;;4.90;4.50;;;32.00;37.40;;;;;;5036901;28;20041;-64
2023/06/26 11:41:30;;;;;;;4.82;3.88;;;32.00;36.60;;;;;;5034832;28;20026;-64
2023/06/26 11:43:59;;;;;;;4.00;3.70;;;31.90;37.10;;;;;;5033293;28;20025;-64
2023/06/26 11:46:25;;;;;;;4.47;3.90;;;31.80;37.50;;;;;;5036153;28;20037;-64
2023/06/26 11:48:51;;;;;;;3.97;3.67;;;31.70;36.90;;;;;;5036646;28;20044;-64
2023/06/26 11:51:17;;;;;;;5.00;4.50;;;31.80;37.00;;;;;;5035350;28;20071;-64
2023/06/26 11:53:45;;;;;;;4.50;4.10;;;31.70;36.60;;;;;;5033914;28;20049;-65
2023/06/26 11:56:13;;;;;;;5.13;3.92;;;31.70;36.50;;;;;;5037270;28;20037;-64
2023/06/26 11:59:00;;;;;;;4.55;4.15;;;31.60;37.10;;;;;;5033906;28;20512;-65
2023/06/26 12:01:27;;;;;;;4.40;4.10;;;31.60;36.20;;;;;;5035460;28;20082;-64
2023/06/26 12:03:58;;;;;;;4.70;4.18;;;31.50;37.20;;;;;;5033615;28;20033;-64
2023/06/26 12:06:24;;;;;;;4.93;4.22;;;31.40;37.90;;;;;;5036151;28;20041;-64
2023/06/26 12:08:50;;;;;;;4.68;4.00;;;31.50;38.40;;;;;;5035289;28;20037;-64
2023/06/26 12:11:16;;;;;;;4.70;4.30;;;31.50;38.00;;;;;;5030571;28;20033;-64
2023/06/26 12:13:42;;;;;;;4.10;3.80;;;31.60;38.20;;;;;;5036349;28;20052;-64
2023/06/26 12:16:08;;;;;;;4.93;3.83;;;31.70;38.00;;;;;;5033509;28;20041;-64
2023/06/26 12:18:36;;;;;;;6.43;4.00;;;31.80;38.50;;;;;;5032678;28;20443;-65
2023/06/26 12:21:02;;;;;;;5.05;4.53;;;32.00;37.50;;;;;;5034276;28;20087;-64
2023/06/26 12:23:39;;;;;;;4.10;3.72;;;32.10;36.70;;;;;;5035948;28;20593;-64
2023/06/26 12:26:20;;;;;;;4.75;4.22;;;32.20;36.80;;;;;;5034535;28;20045;-63
2023/06/26 12:28:47;;;;;;;5.63;4.55;;;32.30;36.80;;;;;;5034718;28;20112;-64
2023/06/26 12:31:16;;;;;;;4.40;4.10;;;32.40;37.50;;;;;;5032834;28;20120;-64
2023/06/26 12:33:45;;;;;;;4.72;3.97;;;32.50;37.60;;;;;;5037394;28;20116;-64
2023/06/26 12:36:14;;;;;;;4.57;4.18;;;32.50;38.10;;;;;;5036128;28;20146;-64
2023/06/26 12:38:41;;;;;;;4.78;4.32;;;32.60;38.70;;;;;;5035288;28;20397;-64
2023/06/26 12:41:14;;;;;;;4.65;4.22;;;32.70;38.00;;;;;;5035794;28;20160;-64
2023/06/26 12:43:40;;;;;;;4.50;4.10;;;32.70;37.40;;;;;;5035044;28;20037;-64